Statia Star — IIXA2 — position and weather

sailwx.info

Track history (hours):
 
Tides and Currents Weather Stations Pressure Air Temp Water Temp Dewpoint Dewpoint Depression Visibility Wind Speed Wind Dir Waves Ship Positions

Statia Star

Last reported at 2015-Oct-15 06:13 UTC. Time now 2016-Apr-30 11:15 UTC.
Position N 17°44' W 063°03'.
Warning: this ship's position is months out of date.

Length 32 m; draft 5.5 m.

Type: Other ship. MMSI: 247288500.

Date/timePositionNaut miles runAvg speedWind from/ knotsBaromVisibWave heightAir tempDewpointWater temp
2015-Oct-15 06:13N 17°44' W 063°03'6 9.5
2015-Oct-15 05:33N 17°51' W 063°04'9 9.2
2015-Oct-15 04:32N 17°60' W 063°05'3 0.3
2015-Oct-14 21:18N 18°00' W 063°03'0 0.0
2015-Oct-14 14:12N 18°00' W 063°03'0 0.0
2015-Oct-14 07:30N 18°00' W 063°03'0 0.0
2015-Oct-14 06:33N 18°00' W 063°03'0 0.0
2015-Oct-14 03:15N 18°00' W 063°03'0 0.0
2015-Oct-14 02:30N 18°00' W 063°03'0 0.0
2015-Oct-14 01:33N 18°00' W 063°03'0 0.0
2015-Oct-14 00:31N 18°00' W 063°03'0 0.0
2015-Oct-13 23:27N 18°00' W 063°03'0 0.0
2015-Oct-13 22:32N 18°00' W 063°03'0 0.0
2015-Oct-13 21:33N 18°00' W 063°03'0 0.0
2015-Oct-13 20:31N 18°00' W 063°03'0 0.0
2015-Oct-13 19:33N 18°00' W 063°03'0 0.0
2015-Oct-13 18:30N 18°00' W 063°03'0 0.0
2015-Oct-13 17:32N 18°00' W 063°03'0 0.0
2015-Oct-13 16:31N 18°00' W 063°03'0 0.0
2015-Oct-13 15:28N 18°00' W 063°03'0 0.0
2015-Oct-13 14:33N 18°00' W 063°03'0 0.0
2015-Oct-13 13:31N 18°00' W 063°03'0 0.0
2015-Oct-13 12:31N 18°00' W 063°03'0 0.4
2015-Oct-13 11:27N 18°00' W 063°03'4 4.3
2015-Oct-13 10:32N 17°58' W 063°07'6 6.4
2015-Oct-13 09:33N 17°52' W 063°06'8 7.8
2015-Oct-13 08:33N 17°44' W 063°05'  
Track history (hours):
 
Tides and Currents Weather Stations Pressure Air Temp Water Temp Dewpoint Dewpoint Depression Visibility Wind Speed Wind Dir Waves Ship Positions

Statia Star

Last reported at 2015-Oct-15 06:13 UTC. Time now 2016-Apr-30 11:15 UTC.
Position N 17°44' W 063°03'.
Warning: this ship's position is months out of date.

Length 32 m; draft 5.5 m.

Type: Other ship. MMSI: 247288500.

Date/timePositionNaut miles runAvg speedWind from/ knotsBaromVisibWave heightAir tempDewpointWater temp
2015-Oct-15 06:13N 17°44' W 063°03'6 9.5
2015-Oct-15 05:33N 17°51' W 063°04'9 9.2
2015-Oct-15 04:32N 17°60' W 063°05'3 0.3
2015-Oct-14 21:18N 18°00' W 063°03'0 0.0
2015-Oct-14 14:12N 18°00' W 063°03'0 0.0
2015-Oct-14 07:30N 18°00' W 063°03'0 0.0
2015-Oct-14 06:33N 18°00' W 063°03'0 0.0
2015-Oct-14 03:15N 18°00' W 063°03'0 0.0
2015-Oct-14 02:30N 18°00' W 063°03'0 0.0
2015-Oct-14 01:33N 18°00' W 063°03'0 0.0
2015-Oct-14 00:31N 18°00' W 063°03'0 0.0
2015-Oct-13 23:27N 18°00' W 063°03'0 0.0
2015-Oct-13 22:32N 18°00' W 063°03'0 0.0
2015-Oct-13 21:33N 18°00' W 063°03'0 0.0
2015-Oct-13 20:31N 18°00' W 063°03'0 0.0
2015-Oct-13 19:33N 18°00' W 063°03'0 0.0
2015-Oct-13 18:30N 18°00' W 063°03'0 0.0
2015-Oct-13 17:32N 18°00' W 063°03'0 0.0
2015-Oct-13 16:31N 18°00' W 063°03'0 0.0
2015-Oct-13 15:28N 18°00' W 063°03'0 0.0
2015-Oct-13 14:33N 18°00' W 063°03'0 0.0
2015-Oct-13 13:31N 18°00' W 063°03'0 0.0
2015-Oct-13 12:31N 18°00' W 063°03'0 0.4
2015-Oct-13 11:27N 18°00' W 063°03'4 4.3
2015-Oct-13 10:32N 17°58' W 063°07'6 6.4
2015-Oct-13 09:33N 17°52' W 063°06'8 7.8
2015-Oct-13 08:33N 17°44' W 063°05'  

Dump ship's entire track history